Portada
METAR-TAF:

METAR-TAF

Aeroports :

Txità, Rússia

latitud: 52-05N, longitud: 113-29E, altitud: 685 m

Observació

L'informe es va fer fa 10 minuts, a les 10:00 UTC
Vent 17 kt del Oest/Nord-Oest
Temperatura 0°C
Humitat 51%
Pressió 1018 hPa
Visibilitat 10 km o més
Escasses núvols a una alçada de 4300 ft, Cumulonimbus.

METAR: UIAA 261000Z 29009MPS 9999 FEW043CB M00/M09 Q1018 R29/CLRD70 NOSIG RMK QFE704/0939

Hora: 19:10 (10:10 UTC)

Pronòstic

L'informe es va fer fa 2 hores i 10 minuts, a les 08:00 UTC
Pronòstic vàlid del 26 a les 09 UTC al 27 a les 09 UTC
Vent 16 kt del Oest/Nord-Oest amb ràfegues de 29 kt
Visibilitat 10 km o més
Núvols disperses a una alçada de 3000 ft, Cumulonimbus.
Temporalment
l' 26 a les 12 UTC al 27 a les 09 UTC
Vent 6 kt del Oest amb ràfegues de 16 kt

TAF: UIAA 260800Z 2609/2709 29008G15MPS 9999 SCT030CB TEMPO 2612/2709 28003G08MPS

Observacions i pronòstics meteorològics de més de 4000 aeroports (METAR i TAF).

Les estacions disponibles són els punts grocs i vermells al mapa.

Posi el ratolí al punt desitjat per veure el nom de l'estació.

Feu clic per veure les observacions i els pronòstics meteorològics.

Per canviar el mapa: feu clic els botons verds amb una creu de color negre per apropar; al botó verd amb un guió per allunyar la imatge; o en les fletxes verdes per a mapes adjacents.


METAR-TAF: